createdAt,value
2023-01-17T00:02:31.088Z,98145.75
2023-01-17T00:05:58.156Z,98144.75
2023-01-17T00:09:18.530Z,98134.97
2023-01-17T00:12:22.288Z,98131.63
2023-01-17T00:15:25.978Z,98123.47
2023-01-17T00:18:28.875Z,98120.97
2023-01-17T00:21:50.698Z,98116.50
2023-01-17T00:25:11.156Z,98126.28
2023-01-17T00:28:13.161Z,98126.28
2023-01-17T00:31:16.614Z,98121.81
2023-01-17T00:34:18.341Z,98118.56
2023-01-17T00:37:21.397Z,98111.44
2023-01-17T00:40:23.174Z,98120.13
2023-01-17T00:43:43.519Z,98112.16
2023-01-17T00:47:03.763Z,98111.19
2023-01-17T00:50:24.158Z,98120.13
2023-01-17T00:53:45.719Z,98109.47
2023-01-17T00:57:06.039Z,98107.94
2023-01-17T01:00:27.734Z,98099.97
2023-01-17T01:03:48.273Z,98082.44
2023-01-17T01:07:08.505Z,98085.97
2023-01-17T01:10:30.182Z,98084.28
2023-01-17T01:13:51.075Z,98086.25
2023-01-17T01:17:11.316Z,98079.25
2023-01-17T01:20:31.541Z,98074.78
2023-01-17T01:23:51.970Z,98075.63
2023-01-17T01:27:13.841Z,98079.94
2023-01-17T01:30:34.763Z,98067.50
2023-01-17T01:33:37.711Z,98061.31
2023-01-17T01:36:40.569Z,98054.34
2023-01-17T01:39:43.425Z,98063.03
2023-01-17T01:42:52.035Z,98064.97
2023-01-17T01:45:59.218Z,98060.47
2023-01-17T01:49:06.757Z,98048.03
2023-01-17T01:52:12.039Z,98044.53
2023-01-17T01:55:19.438Z,98043.69
2023-01-17T01:58:28.093Z,98036.69
2023-01-17T02:01:32.506Z,98038.38
2023-01-17T02:04:36.127Z,98033.06
2023-01-17T02:07:44.494Z,98028.56
2023-01-17T02:10:47.677Z,98025.09
2023-01-17T02:13:51.987Z,98024.09
2023-01-17T02:17:07.421Z,98015.16
2023-01-17T02:20:48.970Z,98013.44
2023-01-17T02:24:40.730Z,98011.63
2023-01-17T02:27:59.562Z,98014.31
2023-01-17T02:31:10.703Z,98008.13
2023-01-17T02:34:21.609Z,98014.31
2023-01-17T02:37:29.857Z,98005.47
2023-01-17T02:40:39.682Z,98001.16
2023-01-17T02:43:42.809Z,98003.81
2023-01-17T02:46:48.729Z,98011.78
2023-01-17T02:49:53.671Z,98011.78
2023-01-17T02:53:12.980Z,98012.59
2023-01-17T02:56:28.261Z,98016.09
2023-01-17T02:59:39.625Z,98009.81
2023-01-17T03:02:53.029Z,98004.50
2023-01-17T03:06:01.731Z,98013.44
2023-01-17T03:09:05.715Z,98013.44
2023-01-17T03:12:10.931Z,98013.44
2023-01-17T03:15:16.073Z,98010.78
2023-01-17T03:18:20.506Z,98008.13
2023-01-17T03:21:24.610Z,97997.50
2023-01-17T03:24:27.507Z,98001.16
2023-01-17T03:27:30.803Z,98001.16
2023-01-17T03:30:33.719Z,98006.47
2023-01-17T03:33:38.035Z,98008.13
2023-01-17T03:36:40.801Z,98002.81
2023-01-17T03:39:43.634Z,98000.00
2023-01-17T03:42:46.653Z,98004.50
2023-01-17T03:45:51.992Z,98006.16
2023-01-17T03:48:56.369Z,97998.19
2023-01-17T03:51:59.252Z,97999.03
2023-01-17T03:55:02.623Z,97998.19
2023-01-17T03:58:05.922Z,97990.22
2023-01-17T04:01:08.816Z,97993.72
2023-01-17T04:04:13.053Z,97991.91
2023-01-17T04:07:15.845Z,97993.56
2023-01-17T04:10:18.765Z,98001.53
2023-01-17T04:13:21.588Z,98003.09
2023-01-17T04:16:29.275Z,97992.59
2023-01-17T04:19:36.809Z,98000.28
2023-01-17T04:22:39.679Z,97992.44
2023-01-17T04:25:42.594Z,97987.13
2023-01-17T04:28:45.625Z,97988.94
2023-01-17T04:31:48.778Z,97978.31
2023-01-17T04:34:53.039Z,97991.59
2023-01-17T04:37:55.871Z,97982.94
2023-01-17T04:40:58.684Z,97975.94
2023-01-17T04:44:01.968Z,97983.94
2023-01-17T04:47:04.857Z,97984.03
2023-01-17T04:50:10.870Z,97987.69
2023-01-17T04:53:13.769Z,97988.56
2023-01-17T04:56:16.663Z,97986.84
2023-01-17T04:59:19.611Z,97986.84
2023-01-17T05:02:22.618Z,97995.53
2023-01-17T05:05:27.242Z,98000.84
2023-01-17T05:08:30.174Z,98003.66
2023-01-17T05:11:32.982Z,98007.16
2023-01-17T05:14:35.918Z,97998.34
2023-01-17T05:17:38.771Z,98008.97
2023-01-17T05:20:43.332Z,98009.81
2023-01-17T05:23:46.130Z,98005.47
2023-01-17T05:26:54.568Z,98017.94
2023-01-17T05:29:57.477Z,98023.25
2023-01-17T05:33:00.715Z,98026.06
2023-01-17T05:36:05.202Z,98035.84
2023-01-17T05:39:08.091Z,98030.66
2023-01-17T05:42:10.980Z,98050.13
2023-01-17T05:45:16.799Z,98040.34
2023-01-17T05:48:19.646Z,98038.50
2023-01-17T05:51:24.041Z,98035.84
2023-01-17T05:54:26.853Z,98036.69
2023-01-17T05:57:29.664Z,98044.66
2023-01-17T06:00:33.636Z,98057.13
2023-01-17T06:03:36.466Z,98055.31
2023-01-17T06:06:40.766Z,98061.63
2023-01-17T06:09:43.635Z,98064.28
2023-01-17T06:12:47.666Z,98063.28
2023-01-17T06:15:50.530Z,98062.44
2023-01-17T06:18:53.387Z,98073.22
2023-01-17T06:21:57.583Z,98076.72
2023-01-17T06:25:00.681Z,98080.34
2023-01-17T06:28:03.672Z,98084.72
2023-01-17T06:31:08.157Z,98079.25
2023-01-17T06:34:11.161Z,98080.09
2023-01-17T06:37:15.342Z,98082.75
2023-01-17T06:40:18.851Z,98075.63
2023-01-17T06:43:21.679Z,98084.41
2023-01-17T06:46:25.805Z,98092.38
2023-01-17T06:49:28.856Z,98085.25
2023-01-17T06:52:33.059Z,98096.03
2023-01-17T06:55:40.153Z,98090.72
2023-01-17T06:58:43.106Z,98103.19
2023-01-17T07:01:46.115Z,98105.84
2023-01-17T07:04:49.038Z,98107.25
2023-01-17T07:07:53.642Z,98110.03
2023-01-17T07:11:00.305Z,98116.19
2023-01-17T07:14:03.220Z,98122.78
2023-01-17T07:17:06.159Z,98123.91
2023-01-17T07:20:10.556Z,98137.47
2023-01-17T07:23:14.778Z,98138.66
2023-01-17T07:26:17.731Z,98140.91
2023-01-17T07:29:20.732Z,98148.31
2023-01-17T07:32:23.586Z,98148.47
2023-01-17T07:35:27.182Z,98151.56
2023-01-17T07:38:31.448Z,98159.13
2023-01-17T07:41:41.068Z,98157.97
2023-01-17T07:44:45.123Z,98152.53
2023-01-17T07:47:50.072Z,98156.00
2023-01-17T07:50:54.714Z,98166.66
2023-01-17T07:53:59.443Z,98171.00
2023-01-17T07:57:02.493Z,98170.16
2023-01-17T08:00:06.507Z,98168.63
2023-01-17T08:03:17.057Z,98166.94
2023-01-17T08:06:22.628Z,98171.56
2023-01-17T08:09:26.988Z,98184.19
2023-01-17T08:12:30.371Z,98182.50
2023-01-17T08:15:33.184Z,98192.44
2023-01-17T08:18:36.007Z,98187.97
2023-01-17T08:21:38.979Z,98195.25
2023-01-17T08:24:44.592Z,98192.72
2023-01-17T08:27:47.570Z,98199.03
2023-01-17T08:30:50.414Z,98191.19
2023-01-17T08:33:53.352Z,98191.19
2023-01-17T08:36:56.488Z,98196.63
2023-01-17T08:40:00.778Z,98201.13
2023-01-17T08:43:04.013Z,98216.25
2023-01-17T08:46:06.984Z,98208.41
2023-01-17T08:49:12.101Z,98217.22
2023-01-17T08:52:15.479Z,98224.38
2023-01-17T08:55:20.957Z,98225.19
2023-01-17T08:58:24.028Z,98229.00
2023-01-17T09:01:27.157Z,98231.66
2023-01-17T09:04:30.297Z,98225.50
2023-01-17T09:07:33.495Z,98229.97
2023-01-17T09:10:37.848Z,98228.28
2023-01-17T09:13:41.300Z,98238.94
2023-01-17T09:16:44.205Z,98243.41
2023-01-17T09:19:48.658Z,98244.25
2023-01-17T09:22:52.280Z,98244.25
2023-01-17T09:25:58.229Z,98245.06
2023-01-17T09:29:01.113Z,98250.41
2023-01-17T09:32:04.196Z,98257.41
2023-01-17T09:35:08.696Z,98258.38
2023-01-17T09:38:11.693Z,98268.91
2023-01-17T09:41:24.159Z,98269.03
2023-01-17T09:44:31.108Z,98260.22
2023-01-17T09:47:39.235Z,98282.34
2023-01-17T09:50:50.967Z,98277.00
2023-01-17T09:53:54.950Z,98282.34
2023-01-17T09:57:03.934Z,98294.66
2023-01-17T10:00:16.213Z,98298.28
2023-01-17T10:03:29.722Z,98304.47
2023-01-17T10:06:48.057Z,98314.25
2023-01-17T10:10:07.517Z,98318.63
2023-01-17T10:13:27.893Z,98326.59
2023-01-17T10:16:42.486Z,98331.06
2023-01-17T10:20:00.745Z,98332.88
2023-01-17T10:23:25.178Z,98340.06
2023-01-17T10:26:28.652Z,98349.84
2023-01-17T10:29:36.485Z,98356.03
2023-01-17T10:32:47.481Z,98348.16
2023-01-17T10:35:57.825Z,98353.47
2023-01-17T10:39:05.485Z,98356.13
2023-01-17T10:42:15.776Z,98356.28
2023-01-17T10:45:25.676Z,98367.75
2023-01-17T10:48:39.119Z,98372.25
2023-01-17T10:52:01.128Z,98383.72
2023-01-17T10:55:16.954Z,98386.41
2023-01-17T10:58:20.078Z,98383.72
2023-01-17T11:01:26.402Z,98383.72
2023-01-17T11:04:36.520Z,98389.06
2023-01-17T11:07:40.192Z,98390.00
2023-01-17T11:10:46.458Z,98388.34
2023-01-17T11:13:51.008Z,98392.69
2023-01-17T11:17:03.605Z,98396.34
2023-01-17T11:20:19.958Z,98406.97
2023-01-17T11:23:27.547Z,98401.66
2023-01-17T11:26:33.014Z,98402.63
2023-01-17T11:29:38.740Z,98410.59
2023-01-17T11:32:52.722Z,98407.78
2023-01-17T11:35:55.610Z,98411.31
2023-01-17T11:39:02.771Z,98412.28
2023-01-17T11:42:27.542Z,98410.44
2023-01-17T11:45:33.382Z,98415.66
2023-01-17T11:48:40.276Z,98416.63
2023-01-17T11:51:43.806Z,98427.28
2023-01-17T11:54:49.037Z,98441.56
2023-01-17T11:57:52.186Z,98433.59
2023-01-17T12:01:02.114Z,98438.91
2023-01-17T12:04:29.765Z,98440.00
2023-01-17T12:07:41.240Z,98436.50
2023-01-17T12:10:54.479Z,98439.16
2023-01-17T12:14:05.389Z,98445.31
2023-01-17T12:17:20.144Z,98445.31
2023-01-17T12:20:32.864Z,98452.31
2023-01-17T12:23:51.633Z,98455.81
2023-01-17T12:27:06.741Z,98479.78
2023-01-17T12:30:23.925Z,98491.41
2023-01-17T12:33:37.548Z,98501.91
2023-01-17T12:36:49.672Z,98506.38
2023-01-17T12:39:59.543Z,98508.09
2023-01-17T12:43:08.053Z,98522.34
2023-01-17T12:46:20.788Z,98516.19
2023-01-17T12:49:32.727Z,98533.97
2023-01-17T12:52:49.852Z,98528.66
2023-01-17T12:55:58.409Z,98533.00
2023-01-17T12:59:09.599Z,98538.31
2023-01-17T13:02:21.967Z,98542.78
2023-01-17T13:05:28.381Z,98546.28
2023-01-17T13:08:41.295Z,98555.13
2023-01-17T13:11:49.826Z,98555.13
2023-01-17T13:14:52.827Z,98555.13
2023-01-17T13:18:01.664Z,98564.94
2023-01-17T13:21:29.533Z,98575.56
2023-01-17T13:24:45.368Z,98579.22
2023-01-17T13:28:16.083Z,98574.72
2023-01-17T13:31:45.457Z,98582.69
2023-01-17T13:35:06.501Z,98586.22
2023-01-17T13:38:30.442Z,98594.19
2023-01-17T13:41:46.435Z,98596.84
2023-01-17T13:44:50.498Z,98591.53
2023-01-17T13:47:54.079Z,98603.03
2023-01-17T13:50:57.716Z,98611.88
2023-01-17T13:54:00.602Z,98619.84
2023-01-17T13:57:46.757Z,98618.13
2023-01-17T14:00:51.727Z,98618.13
2023-01-17T14:04:06.969Z,98625.16
2023-01-17T14:07:21.042Z,98635.91
2023-01-17T14:10:34.285Z,98639.44
2023-01-17T14:13:40.828Z,98645.59
2023-01-17T14:16:46.214Z,98650.06
2023-01-17T14:19:51.933Z,98644.75
2023-01-17T14:22:58.204Z,98658.06
2023-01-17T14:26:15.222Z,98674.03
2023-01-17T14:29:50.863Z,98672.22
2023-01-17T14:33:13.747Z,98684.66
2023-01-17T14:36:25.731Z,98683.72
2023-01-17T14:39:28.635Z,98692.66
2023-01-17T14:42:33.730Z,98694.34
2023-01-17T14:45:39.295Z,98701.47
2023-01-17T14:48:42.633Z,98706.94
2023-01-17T14:51:58.655Z,98708.63
2023-01-17T14:55:14.692Z,98722.91
2023-01-17T14:58:18.076Z,98726.66
2023-01-17T15:01:28.892Z,98733.78
2023-01-17T15:04:38.238Z,98725.94
2023-01-17T15:07:41.724Z,98730.50
2023-01-17T15:10:50.134Z,98727.84
2023-01-17T15:13:57.311Z,98738.50
2023-01-17T15:17:12.735Z,98736.69
2023-01-17T15:20:19.182Z,98740.16
2023-01-17T15:23:23.914Z,98743.81
2023-01-17T15:26:28.936Z,98763.28
2023-01-17T15:29:34.477Z,98764.25
2023-01-17T15:32:39.537Z,98769.56
2023-01-17T15:35:43.968Z,98769.56
2023-01-17T15:38:53.395Z,98773.19
2023-01-17T15:41:58.752Z,98767.84
2023-01-17T15:45:04.533Z,98775.84
2023-01-17T15:48:41.527Z,98784.66
2023-01-17T15:51:49.501Z,98775.03
2023-01-17T15:54:54.598Z,98774.16
2023-01-17T15:57:58.050Z,98771.50
2023-01-17T16:01:01.524Z,98771.50
2023-01-17T16:04:25.453Z,98779.47
2023-01-17T16:07:35.008Z,98787.47
2023-01-17T16:10:39.502Z,98791.94
2023-01-17T16:13:47.183Z,98794.72
2023-01-17T16:16:53.936Z,98800.06
2023-01-17T16:19:58.502Z,98802.84
2023-01-17T16:23:02.906Z,98808.16
2023-01-17T16:26:06.135Z,98807.19
2023-01-17T16:29:10.152Z,98808.16
2023-01-17T16:32:14.837Z,98807.31
2023-01-17T16:35:21.127Z,98802.84
2023-01-17T16:38:24.050Z,98803.66
2023-01-17T16:41:26.894Z,98805.38
2023-01-17T16:44:30.379Z,98810.69
2023-01-17T16:47:33.200Z,98807.03
2023-01-17T16:50:42.396Z,98810.69
2023-01-17T16:53:45.349Z,98808.03
2023-01-17T16:56:48.189Z,98813.47
2023-01-17T16:59:52.357Z,98816.00
2023-01-17T17:02:55.263Z,98817.94
2023-01-17T17:06:01.567Z,98818.81
2023-01-17T17:09:04.724Z,98817.94
2023-01-17T17:12:08.041Z,98824.13
2023-01-17T17:15:12.027Z,98833.91
2023-01-17T17:18:15.927Z,98826.88
2023-01-17T17:21:20.172Z,98832.19
2023-01-17T17:24:23.002Z,98833.91
2023-01-17T17:27:27.874Z,98834.78
2023-01-17T17:30:31.223Z,98840.91
2023-01-17T17:33:35.312Z,98849.88
2023-01-17T17:36:39.950Z,98849.88
2023-01-17T17:39:44.471Z,98850.81
2023-01-17T17:42:47.281Z,98857.97
2023-01-17T17:45:50.067Z,98862.44
2023-01-17T17:48:52.975Z,98868.72
2023-01-17T17:52:05.033Z,98871.38
2023-01-17T17:55:08.559Z,98869.72
2023-01-17T17:58:11.330Z,98875.03
2023-01-17T18:01:14.222Z,98875.97
2023-01-17T18:04:17.386Z,98875.97
2023-01-17T18:07:21.623Z,98881.31
2023-01-17T18:10:24.450Z,98878.66
2023-01-17T18:13:27.771Z,98874.19
2023-01-17T18:16:33.181Z,98873.31
2023-01-17T18:19:36.022Z,98877.78
2023-01-17T18:22:40.806Z,98887.59
2023-01-17T18:25:44.631Z,98895.59
2023-01-17T18:28:47.857Z,98893.88
2023-01-17T18:31:52.138Z,98889.53
2023-01-17T18:34:54.939Z,98892.19
2023-01-17T18:37:59.961Z,98886.88
2023-01-17T18:41:03.424Z,98886.88
2023-01-17T18:44:07.256Z,98897.41
2023-01-17T18:47:10.908Z,98891.22
2023-01-17T18:50:13.949Z,98897.41
2023-01-17T18:53:18.363Z,98908.88
2023-01-17T18:56:22.760Z,98901.72
2023-01-17T18:59:25.873Z,98912.28
2023-01-17T19:02:28.713Z,98917.59
2023-01-17T19:05:31.584Z,98916.63
2023-01-17T19:08:36.176Z,98925.44
2023-01-17T19:11:39.166Z,98920.13
2023-01-17T19:14:42.095Z,98929.91
2023-01-17T19:17:44.896Z,98932.47
2023-01-17T19:20:47.829Z,98931.63
2023-01-17T19:23:52.394Z,98929.91
2023-01-17T19:26:55.366Z,98935.25
2023-01-17T19:29:58.205Z,98943.13
2023-01-17T19:33:01.441Z,98951.94
2023-01-17T19:36:06.775Z,98945.66
2023-01-17T19:39:11.062Z,98942.28
2023-01-17T19:42:15.641Z,98961.63
2023-01-17T19:45:18.821Z,98958.97
2023-01-17T19:48:22.547Z,98956.28
2023-01-17T19:51:26.691Z,98956.28
2023-01-17T19:54:30.907Z,98961.63
2023-01-17T19:57:34.849Z,98972.25
2023-01-17T20:00:46.132Z,98962.56
2023-01-17T20:03:49.661Z,98962.56
2023-01-17T20:06:52.605Z,98966.09
2023-01-17T20:09:57.586Z,98967.88
2023-01-17T20:13:00.521Z,98959.91
2023-01-17T20:16:05.024Z,98967.78
2023-01-17T20:19:08.191Z,98965.22
2023-01-17T20:22:11.155Z,98966.94
2023-01-17T20:25:15.581Z,98977.59
2023-01-17T20:28:18.466Z,98980.25
2023-01-17T20:31:23.375Z,98972.47
2023-01-17T20:34:26.626Z,98974.28
2023-01-17T20:37:29.555Z,98973.47
2023-01-17T20:40:33.822Z,98979.75
2023-01-17T20:43:36.752Z,98981.44
2023-01-17T20:46:41.682Z,98974.41
2023-01-17T20:49:44.596Z,98983.13
2023-01-17T20:52:48.232Z,98976.94
2023-01-17T20:55:58.158Z,98985.78
2023-01-17T20:59:03.650Z,98989.31
2023-01-17T21:02:09.887Z,99004.41
2023-01-17T21:05:13.244Z,99006.13
2023-01-17T21:08:18.458Z,99002.47
2023-01-17T21:11:25.225Z,99013.13
2023-01-17T21:14:28.398Z,99013.13
2023-01-17T21:17:31.546Z,99012.16
2023-01-17T21:20:36.419Z,99018.44
2023-01-17T21:23:41.003Z,99020.16
2023-01-17T21:26:45.827Z,99037.91
2023-01-17T21:29:48.715Z,99052.09
2023-01-17T21:32:51.609Z,99062.72
2023-01-17T21:35:54.639Z,99055.69
2023-01-17T21:38:59.147Z,99062.00
2023-01-17T21:42:03.433Z,99069.00
2023-01-17T21:45:07.186Z,99087.63
2023-01-17T21:48:13.080Z,99083.28
2023-01-17T21:51:16.449Z,99086.66
2023-01-17T21:54:19.436Z,99101.66
2023-01-17T21:57:41.490Z,99084.75
2023-01-17T22:00:44.449Z,99099.13
2023-01-17T22:03:50.816Z,99097.44
2023-01-17T22:06:53.736Z,99105.50
2023-01-17T22:09:56.953Z,99112.53
2023-01-17T22:13:01.123Z,99108.16
2023-01-17T22:16:05.878Z,99106.25
2023-01-17T22:19:08.663Z,99105.28
2023-01-17T22:22:11.449Z,99103.59
2023-01-17T22:25:14.602Z,99101.91
2023-01-17T22:28:18.803Z,99102.84
2023-01-17T22:31:23.387Z,99105.50
2023-01-17T22:34:26.387Z,99099.25
2023-01-17T22:37:29.202Z,99096.59
2023-01-17T22:40:32.749Z,99106.56
2023-01-17T22:43:42.359Z,99103.09
2023-01-17T22:46:45.221Z,99101.50
2023-01-17T22:49:48.134Z,99100.91
2023-01-17T22:52:50.975Z,99107.28
2023-01-17T22:56:01.353Z,99105.69
2023-01-17T22:59:11.275Z,99109.44
2023-01-17T23:02:15.756Z,99114.88
2023-01-17T23:05:20.216Z,99112.22
2023-01-17T23:08:23.119Z,99117.53
2023-01-17T23:11:42.444Z,99113.91
2023-01-17T23:15:04.036Z,99112.22
2023-01-17T23:18:24.370Z,99104.22
2023-01-17T23:21:47.190Z,99106.91
2023-01-17T23:24:52.763Z,99102.44
2023-01-17T23:28:20.534Z,99097.94
2023-01-17T23:31:25.224Z,99100.59
2023-01-17T23:34:28.035Z,99095.28
2023-01-17T23:37:45.390Z,99096.00
2023-01-17T23:41:08.596Z,99092.41
2023-01-17T23:44:10.437Z,99082.63
2023-01-17T23:47:15.333Z,99090.47
2023-01-17T23:50:19.077Z,99084.94
2023-01-17T23:53:23.005Z,99083.00
2023-01-17T23:56:25.833Z,99076.72
2023-01-17T23:59:29.176Z,99072.13
